Terminal Aerodrome Forecast
Issued by NWS

Home | Current Version | Previous Version | Text Only | Print | Product List | Glossary On
Versions: 1 2 3 4 5 6 7 8 9 10 11 12 13 14
561
FTUS46 KSEW 042329
TAFOLM
TAF
KOLM 042329Z 0500/0524 27008KT P6SM FEW045
     FM050500 20005KT P6SM BKN050 OVC100
     FM051000 18006KT 4SM -SHRASN BR BKN015 OVC050
     FM051300 18005KT 2SM -SHRASN BR BKN007 OVC015
     FM051900 20004KT 4SM -RA BR OVC015=

USA.gov is the U.S. government's official web portal to all federal, state and local government web resources and services.